createdAt,value
2022-10-06T00:02:08.292Z,11.90
2022-10-06T00:17:11.524Z,12.00
2022-10-06T00:32:14.467Z,13.90
2022-10-06T00:47:19.721Z,19.30
2022-10-06T01:02:34.526Z,24.60
2022-10-06T01:17:43.310Z,13.60
2022-10-06T01:32:46.353Z,12.60
2022-10-06T01:47:49.470Z,12.60
2022-10-06T02:02:52.999Z,15.90
2022-10-06T02:17:56.248Z,12.60
2022-10-06T02:33:03.021Z,12.80
2022-10-06T02:48:06.033Z,12.00
2022-10-06T03:03:09.725Z,12.20
2022-10-06T03:18:13.229Z,13.70
2022-10-06T03:33:16.280Z,12.20
2022-10-06T03:48:19.464Z,13.40
2022-10-06T04:03:22.888Z,13.10
2022-10-06T04:18:26.628Z,13.60
2022-10-06T04:33:32.710Z,12.60
2022-10-06T04:48:35.980Z,15.30
2022-10-06T05:03:39.641Z,13.20
2022-10-06T05:18:43.734Z,12.80
2022-10-06T05:33:48.240Z,14.70
2022-10-06T05:48:55.746Z,16.00
2022-10-06T06:04:03.458Z,13.20
2022-10-06T06:19:13.504Z,12.00
2022-10-06T06:34:18.792Z,13.10
2022-10-06T06:49:23.047Z,9.70
2022-10-06T07:04:33.034Z,9.20
2022-10-06T07:19:51.403Z,6.80
2022-10-06T07:34:55.794Z,6.40
2022-10-06T07:49:59.654Z,5.60
2022-10-06T08:05:04.523Z,6.10
2022-10-06T08:20:11.012Z,8.40
2022-10-06T08:35:15.071Z,6.10
2022-10-06T08:50:21.605Z,6.10
2022-10-06T09:05:30.121Z,5.10
2022-10-06T09:20:38.288Z,3.60
2022-10-06T09:36:09.286Z,3.20
2022-10-06T09:51:17.948Z,3.90
2022-10-06T10:06:28.338Z,2.90
2022-10-06T10:21:34.077Z,3.00
2022-10-06T10:36:51.542Z,2.20
2022-10-06T10:52:03.813Z,1.90
2022-10-06T11:07:21.449Z,1.90
2022-10-06T11:22:41.889Z,1.50
2022-10-06T11:37:56.630Z,12.80
2022-10-06T11:53:00.268Z,1.80
2022-10-06T12:08:04.467Z,1.90
2022-10-06T12:23:22.799Z,1.60
2022-10-06T12:38:33.346Z,1.70
2022-10-06T12:54:11.492Z,1.20
2022-10-06T13:09:14.748Z,1.60
2022-10-06T13:24:20.831Z,0.80
2022-10-06T13:39:26.397Z,1.20
2022-10-06T13:54:38.348Z,1.10
2022-10-06T14:09:43.805Z,1.10
2022-10-06T14:24:51.449Z,1.60
2022-10-06T14:39:56.357Z,2.50
2022-10-06T14:55:00.313Z,31.40
2022-10-06T15:10:06.356Z,20.50
2022-10-06T15:25:30.477Z,50.10
2022-10-06T15:40:34.098Z,52.50
2022-10-06T15:55:39.087Z,80.00
2022-10-06T16:10:43.300Z,52.10
2022-10-06T16:25:46.679Z,45.10
2022-10-06T16:40:57.424Z,30.90
2022-10-06T16:56:00.957Z,19.30
2022-10-06T17:11:18.766Z,30.90
2022-10-06T17:26:24.659Z,19.50
2022-10-06T17:41:34.283Z,14.50
2022-10-06T17:56:39.034Z,15.60
2022-10-06T18:11:44.556Z,13.60
2022-10-06T18:26:49.882Z,15.30
2022-10-06T18:42:26.111Z,12.10
2022-10-06T18:57:29.876Z,16.10
2022-10-06T19:12:33.553Z,11.60
2022-10-06T19:27:38.801Z,8.80
2022-10-06T19:42:48.598Z,7.40
2022-10-06T19:57:51.902Z,12.40
2022-10-06T20:12:55.911Z,23.10
2022-10-06T20:27:59.344Z,26.80
2022-10-06T20:43:02.995Z,26.90
2022-10-06T20:58:05.977Z,22.20
2022-10-06T21:13:09.945Z,19.30
2022-10-06T21:28:14.054Z,18.40
2022-10-06T21:43:17.102Z,19.00
2022-10-06T21:58:20.031Z,18.10
2022-10-06T22:13:23.373Z,12.60
2022-10-06T22:28:26.967Z,10.70
2022-10-06T22:43:30.796Z,13.20
2022-10-06T22:58:34.159Z,9.80
2022-10-06T23:13:37.622Z,9.50
2022-10-06T23:28:41.391Z,8.60
2022-10-06T23:43:44.520Z,10.80
2022-10-06T23:58:48.159Z,9.90
